createdAt,value
2023-05-10T00:01:45.606Z,12.88
2023-05-10T00:04:12.709Z,11.88
2023-05-10T00:06:39.771Z,11.88
2023-05-10T00:09:06.965Z,10.82
2023-05-10T00:11:34.033Z,10.80
2023-05-10T00:14:01.045Z,11.77
2023-05-10T00:16:28.275Z,10.30
2023-05-10T00:18:55.399Z,10.40
2023-05-10T00:21:22.387Z,10.60
2023-05-10T00:23:49.327Z,10.30
2023-05-10T00:26:17.746Z,10.13
2023-05-10T00:28:44.749Z,10.45
2023-05-10T00:31:11.809Z,8.73
2023-05-10T00:33:38.755Z,8.57
2023-05-10T00:36:08.575Z,8.32
2023-05-10T00:38:35.604Z,9.13
2023-05-10T00:41:02.640Z,7.80
2023-05-10T00:43:29.662Z,6.35
2023-05-10T00:45:56.919Z,5.55
2023-05-10T00:48:24.191Z,5.63
2023-05-10T00:50:51.450Z,5.07
2023-05-10T00:53:19.029Z,5.25
2023-05-10T00:55:46.135Z,4.65
2023-05-10T00:58:13.439Z,4.40
2023-05-10T01:00:43.166Z,3.88
2023-05-10T01:03:12.517Z,3.72
2023-05-10T01:05:39.860Z,3.20
2023-05-10T01:08:07.511Z,3.72
2023-05-10T01:10:34.646Z,3.35
2023-05-10T01:13:01.861Z,3.40
2023-05-10T01:15:29.242Z,3.28
2023-05-10T01:17:57.534Z,3.20
2023-05-10T01:20:25.840Z,3.20
2023-05-10T01:23:20.191Z,2.60
2023-05-10T01:26:14.580Z,2.80
2023-05-10T01:28:50.629Z,2.80
2023-05-10T01:31:55.121Z,2.97
2023-05-10T01:34:28.646Z,2.70
2023-05-10T01:40:04.138Z,2.67
2023-05-10T01:42:40.281Z,2.60
2023-05-10T01:45:17.457Z,2.80
2023-05-10T01:48:06.891Z,3.22
2023-05-10T01:50:36.677Z,2.50
2023-05-10T01:53:07.024Z,2.50
2023-05-10T01:55:41.207Z,3.03
2023-05-10T01:58:11.476Z,3.03
2023-05-10T02:00:43.944Z,2.65
2023-05-10T02:03:12.791Z,2.67
2023-05-10T02:05:42.478Z,2.55
2023-05-10T02:08:10.889Z,2.75
2023-05-10T02:10:40.123Z,2.72
2023-05-10T02:13:09.498Z,2.75
2023-05-10T02:15:39.826Z,2.60
2023-05-10T02:18:08.035Z,2.60
2023-05-10T02:20:36.325Z,2.75
2023-05-10T02:23:04.811Z,2.90
2023-05-10T02:25:33.841Z,2.72
2023-05-10T02:28:04.125Z,2.95
2023-05-10T02:30:33.633Z,2.70
2023-05-10T02:33:01.382Z,2.65
2023-05-10T02:35:29.302Z,2.75
2023-05-10T02:37:59.108Z,2.95
2023-05-10T02:40:28.933Z,2.92
2023-05-10T02:42:58.155Z,2.70
2023-05-10T02:45:31.450Z,2.58
2023-05-10T02:47:59.575Z,2.85
2023-05-10T02:50:29.397Z,3.10
2023-05-10T02:53:05.127Z,3.00
2023-05-10T02:55:37.445Z,2.97
2023-05-10T02:58:04.921Z,3.13
2023-05-10T03:00:32.714Z,2.97
2023-05-10T03:03:00.039Z,2.58
2023-05-10T03:05:27.092Z,3.28
2023-05-10T03:07:55.490Z,3.10
2023-05-10T03:10:29.719Z,2.97
2023-05-10T03:13:15.485Z,3.03
2023-05-10T03:16:08.941Z,3.30
2023-05-10T03:19:13.209Z,3.17
2023-05-10T03:24:13.494Z,3.13
2023-05-10T03:26:43.262Z,3.08
2023-05-10T03:29:11.452Z,3.13
2023-05-10T03:31:39.785Z,3.22
2023-05-10T03:34:07.418Z,3.40
2023-05-10T03:36:34.603Z,3.28
2023-05-10T03:39:01.677Z,3.67
2023-05-10T03:41:29.719Z,3.00
2023-05-10T03:43:56.726Z,3.35
2023-05-10T03:46:23.729Z,3.67
2023-05-10T03:48:50.726Z,3.65
2023-05-10T03:51:17.717Z,3.33
2023-05-10T03:53:44.679Z,3.17
2023-05-10T03:56:11.670Z,3.60
2023-05-10T03:58:38.878Z,3.20
2023-05-10T04:01:05.990Z,3.58
2023-05-10T04:03:33.149Z,3.60
2023-05-10T04:06:03.878Z,3.40
2023-05-10T04:08:31.042Z,3.80
2023-05-10T04:11:10.868Z,3.70
2023-05-10T04:13:38.373Z,4.00
2023-05-10T04:16:06.018Z,3.63
2023-05-10T04:18:33.146Z,3.83
2023-05-10T04:21:00.255Z,4.15
2023-05-10T04:23:28.870Z,3.92
2023-05-10T04:26:02.370Z,3.83
2023-05-10T04:31:06.499Z,3.60
2023-05-10T04:33:34.323Z,4.10
2023-05-10T04:36:01.876Z,4.28
2023-05-10T04:38:29.283Z,3.80
2023-05-10T04:41:05.150Z,4.05
2023-05-10T04:43:32.077Z,4.40
2023-05-10T04:45:59.187Z,4.38
2023-05-10T04:48:26.214Z,4.55
2023-05-10T04:50:53.148Z,4.90
2023-05-10T04:53:20.145Z,4.35
2023-05-10T04:55:47.867Z,4.43
2023-05-10T04:58:15.131Z,4.38
2023-05-10T05:00:42.792Z,4.57
2023-05-10T05:03:09.885Z,4.68
2023-05-10T05:05:36.940Z,5.10
2023-05-10T05:08:04.219Z,4.60
2023-05-10T05:10:31.519Z,4.97
2023-05-10T05:12:58.520Z,4.80
2023-05-10T05:15:25.589Z,4.75
2023-05-10T05:17:52.922Z,5.22
2023-05-10T05:20:20.171Z,5.13
2023-05-10T05:22:47.085Z,4.60
2023-05-10T05:25:14.165Z,4.43
2023-05-10T05:27:41.179Z,4.93
2023-05-10T05:30:08.944Z,4.97
2023-05-10T05:32:36.074Z,5.10
2023-05-10T05:35:03.055Z,5.30
2023-05-10T05:37:30.017Z,4.63
2023-05-10T05:39:57.033Z,5.43
2023-05-10T05:42:24.030Z,5.20
2023-05-10T05:44:51.066Z,5.00
2023-05-10T05:47:18.615Z,4.63
2023-05-10T05:49:47.011Z,5.07
2023-05-10T05:52:13.997Z,5.50
2023-05-10T05:54:41.056Z,5.03
2023-05-10T05:57:08.622Z,5.22
2023-05-10T05:59:35.648Z,5.38
2023-05-10T06:02:02.670Z,5.10
2023-05-10T06:04:29.718Z,4.72
2023-05-10T06:06:56.753Z,5.85
2023-05-10T06:09:25.642Z,5.90
2023-05-10T06:11:52.590Z,5.80
2023-05-10T06:14:22.061Z,5.90
2023-05-10T06:16:49.029Z,5.57
2023-05-10T06:19:16.136Z,5.65
2023-05-10T06:21:43.100Z,5.80
2023-05-10T06:24:10.064Z,5.63
2023-05-10T06:26:37.334Z,5.97
2023-05-10T06:29:04.363Z,5.57
2023-05-10T06:31:31.422Z,6.90
2023-05-10T06:33:58.938Z,7.30
2023-05-10T06:36:27.493Z,6.90
2023-05-10T06:38:54.520Z,6.63
2023-05-10T06:41:24.639Z,6.05
2023-05-10T06:43:51.913Z,5.65
2023-05-10T06:46:18.928Z,6.30
2023-05-10T06:48:45.902Z,6.50
2023-05-10T06:51:12.962Z,6.75
2023-05-10T06:53:39.929Z,6.18
2023-05-10T06:56:06.917Z,6.28
2023-05-10T06:58:33.917Z,6.95
2023-05-10T07:01:05.475Z,6.38
2023-05-10T07:03:33.309Z,6.70
2023-05-10T07:06:04.869Z,6.93
2023-05-10T07:08:33.110Z,7.38
2023-05-10T07:11:05.098Z,6.35
2023-05-10T07:13:33.147Z,7.20
2023-05-10T07:16:01.665Z,6.57
2023-05-10T07:18:28.891Z,6.35
2023-05-10T07:20:56.268Z,6.47
2023-05-10T07:23:23.236Z,6.32
2023-05-10T07:25:52.586Z,6.50
2023-05-10T07:28:19.806Z,7.07
2023-05-10T07:30:47.613Z,7.00
2023-05-10T07:33:15.824Z,6.78
2023-05-10T07:35:43.726Z,6.07
2023-05-10T07:38:12.237Z,6.75
2023-05-10T07:40:40.446Z,6.28
2023-05-10T07:43:07.556Z,6.53
2023-05-10T07:45:35.089Z,5.68
2023-05-10T07:48:02.201Z,5.40
2023-05-10T07:50:29.387Z,5.00
2023-05-10T07:52:56.364Z,5.13
2023-05-10T07:55:23.435Z,4.93
2023-05-10T07:57:50.456Z,4.03
2023-05-10T08:00:21.428Z,3.63
2023-05-10T08:02:48.992Z,3.88
2023-05-10T08:05:16.620Z,3.22
2023-05-10T08:07:43.761Z,3.05
2023-05-10T08:10:12.304Z,3.30
2023-05-10T08:12:39.609Z,3.30
2023-05-10T08:15:07.794Z,3.40
2023-05-10T08:17:34.892Z,3.33
2023-05-10T08:20:02.467Z,3.10
2023-05-10T08:22:29.587Z,3.20
2023-05-10T08:24:56.543Z,2.95
2023-05-10T08:27:23.562Z,3.45
2023-05-10T08:29:50.810Z,3.05
2023-05-10T08:32:18.638Z,3.25
2023-05-10T08:34:45.674Z,3.17
2023-05-10T08:37:14.619Z,3.38
2023-05-10T08:39:41.946Z,3.13
2023-05-10T08:42:10.423Z,3.22
2023-05-10T08:44:37.953Z,3.25
2023-05-10T08:47:08.690Z,3.53
2023-05-10T08:49:36.323Z,3.55
2023-05-10T08:52:05.549Z,2.92
2023-05-10T08:54:33.648Z,2.78
2023-05-10T08:57:01.098Z,2.55
2023-05-10T08:59:28.666Z,2.25
2023-05-10T09:02:02.252Z,2.08
2023-05-10T09:04:31.016Z,2.00
2023-05-10T09:06:58.503Z,1.70
2023-05-10T09:09:26.902Z,1.70
2023-05-10T09:11:55.010Z,2.20
2023-05-10T09:14:23.245Z,2.10
2023-05-10T09:16:50.630Z,2.10
2023-05-10T09:19:17.617Z,1.80
2023-05-10T09:21:44.636Z,1.75
2023-05-10T09:24:11.590Z,1.80
2023-05-10T09:26:49.114Z,1.75
2023-05-10T09:29:17.728Z,1.65
2023-05-10T09:31:48.005Z,1.80
2023-05-10T09:34:24.041Z,1.60
2023-05-10T09:37:04.008Z,1.80
2023-05-10T09:39:33.176Z,1.63
2023-05-10T09:42:05.612Z,1.90
2023-05-10T09:44:35.907Z,2.25
2023-05-10T09:47:03.912Z,2.25
2023-05-10T09:49:31.321Z,2.85
2023-05-10T09:52:03.865Z,3.10
2023-05-10T09:54:31.510Z,2.80
2023-05-10T09:56:58.710Z,3.60
2023-05-10T09:59:30.267Z,3.40
2023-05-10T10:01:59.369Z,3.33
2023-05-10T10:04:26.915Z,3.38
2023-05-10T10:07:04.876Z,3.22
2023-05-10T10:09:33.741Z,3.08
2023-05-10T10:12:01.956Z,3.15
2023-05-10T10:14:30.294Z,3.67
2023-05-10T10:17:07.418Z,4.00
2023-05-10T10:19:37.203Z,4.28
2023-05-10T10:22:04.639Z,4.07
2023-05-10T10:24:31.686Z,3.65
2023-05-10T10:27:09.023Z,3.13
2023-05-10T10:29:59.448Z,3.00
2023-05-10T10:32:56.537Z,2.70
2023-05-10T10:35:23.870Z,2.30
2023-05-10T10:37:52.209Z,2.00
2023-05-10T10:40:31.900Z,2.13
2023-05-10T10:43:27.063Z,1.88
2023-05-10T10:46:18.430Z,1.92
2023-05-10T10:48:52.473Z,2.10
2023-05-10T10:51:19.519Z,2.75
2023-05-10T10:53:49.244Z,2.80
2023-05-10T10:56:16.690Z,3.42
2023-05-10T10:58:52.458Z,3.22
2023-05-10T11:01:20.410Z,3.08
2023-05-10T11:03:59.723Z,2.58
2023-05-10T11:06:32.845Z,2.60
2023-05-10T11:09:00.752Z,2.80
2023-05-10T11:11:27.992Z,3.22
2023-05-10T11:14:04.786Z,3.10
2023-05-10T11:16:45.226Z,3.33
2023-05-10T11:19:13.797Z,3.28
2023-05-10T11:22:07.013Z,3.15
2023-05-10T11:24:34.597Z,2.95
2023-05-10T11:27:02.124Z,3.15
2023-05-10T11:29:29.263Z,2.90
2023-05-10T11:31:59.593Z,3.50
2023-05-10T11:34:28.974Z,3.25
2023-05-10T11:36:57.362Z,3.13
2023-05-10T11:39:29.264Z,2.65
2023-05-10T11:41:56.901Z,2.00
2023-05-10T11:44:24.411Z,1.65
2023-05-10T11:46:51.633Z,1.17
2023-05-10T11:49:19.069Z,0.80
2023-05-10T11:51:46.115Z,0.60
2023-05-10T11:54:13.187Z,0.50
2023-05-10T11:56:41.393Z,0.40
2023-05-10T11:59:09.374Z,0.40
2023-05-10T12:01:37.143Z,0.43
2023-05-10T12:04:04.640Z,0.57
2023-05-10T12:06:34.304Z,0.70
2023-05-10T12:09:08.255Z,0.60
2023-05-10T12:11:40.543Z,0.52
2023-05-10T12:14:09.973Z,0.80
2023-05-10T12:16:37.092Z,0.70
2023-05-10T12:19:04.274Z,0.77
2023-05-10T12:21:34.519Z,0.63
2023-05-10T12:24:04.926Z,0.80
2023-05-10T12:26:33.866Z,0.88
2023-05-10T12:29:17.499Z,0.60
2023-05-10T12:31:52.339Z,17.88
2023-05-10T12:34:32.535Z,0.68
2023-05-10T12:37:00.006Z,0.63
2023-05-10T12:39:27.468Z,0.60
2023-05-10T12:41:54.522Z,0.70
2023-05-10T12:44:21.662Z,0.60
2023-05-10T12:46:48.853Z,0.70
2023-05-10T12:49:15.963Z,0.98
2023-05-10T12:51:42.955Z,1.10
2023-05-10T12:54:10.044Z,1.50
2023-05-10T12:56:38.160Z,1.48
2023-05-10T12:59:05.485Z,1.08
2023-05-10T13:01:32.502Z,1.60
2023-05-10T13:04:01.226Z,1.58
2023-05-10T13:06:28.191Z,1.90
2023-05-10T13:08:55.172Z,2.30
2023-05-10T13:11:22.754Z,3.10
2023-05-10T13:13:49.784Z,3.50
2023-05-10T13:16:16.876Z,3.88
2023-05-10T13:18:44.002Z,4.00
2023-05-10T13:21:11.139Z,3.85
2023-05-10T13:23:38.134Z,3.90
2023-05-10T13:26:05.085Z,3.85
2023-05-10T13:28:32.089Z,3.65
2023-05-10T13:31:01.079Z,3.85
2023-05-10T13:33:28.124Z,3.42
2023-05-10T13:35:55.856Z,3.67
2023-05-10T13:38:23.059Z,3.55
2023-05-10T13:40:53.730Z,3.53
2023-05-10T13:43:21.161Z,3.17
2023-05-10T13:45:48.230Z,3.65
2023-05-10T13:48:15.215Z,3.47
2023-05-10T13:50:42.252Z,3.30
2023-05-10T13:53:09.190Z,3.25
2023-05-10T13:55:36.989Z,3.03
2023-05-10T13:58:03.936Z,3.60
2023-05-10T14:00:31.112Z,3.67
2023-05-10T14:02:58.172Z,3.10
2023-05-10T14:05:26.440Z,3.28
2023-05-10T14:07:53.765Z,3.10
2023-05-10T14:10:21.176Z,3.78
2023-05-10T14:12:48.272Z,3.13
2023-05-10T14:15:15.589Z,3.70
2023-05-10T14:17:42.837Z,3.20
2023-05-10T14:20:10.290Z,3.40
2023-05-10T14:22:37.283Z,3.55
2023-05-10T14:25:04.563Z,3.13
2023-05-10T14:27:31.638Z,3.95
2023-05-10T14:29:58.719Z,3.60
2023-05-10T14:32:25.975Z,3.70
2023-05-10T14:34:52.988Z,3.42
2023-05-10T14:37:19.967Z,3.75
2023-05-10T14:39:47.013Z,2.80
2023-05-10T14:42:14.009Z,2.15
2023-05-10T14:44:41.004Z,1.88
2023-05-10T14:47:08.953Z,1.90
2023-05-10T14:49:38.297Z,1.50
2023-05-10T14:52:05.308Z,1.60
2023-05-10T14:54:34.538Z,1.60
2023-05-10T14:57:01.823Z,1.58
2023-05-10T14:59:28.926Z,1.90
2023-05-10T15:01:56.753Z,2.10
2023-05-10T15:04:24.739Z,1.60
2023-05-10T15:06:53.322Z,1.75
2023-05-10T15:09:20.294Z,1.90
2023-05-10T15:11:47.236Z,1.90
2023-05-10T15:14:14.188Z,2.70
2023-05-10T15:16:41.293Z,2.50
2023-05-10T15:19:08.400Z,2.60
2023-05-10T15:21:39.994Z,2.70
2023-05-10T15:24:07.189Z,2.45
2023-05-10T15:26:34.382Z,2.13
2023-05-10T15:29:01.385Z,2.08
2023-05-10T15:31:28.552Z,2.22
2023-05-10T15:34:01.920Z,3.30
2023-05-10T15:36:29.176Z,2.00
2023-05-10T15:38:56.972Z,2.08
2023-05-10T15:41:24.766Z,1.75
2023-05-10T15:43:51.959Z,1.80
2023-05-10T15:46:18.915Z,2.00
2023-05-10T15:48:45.931Z,1.60
2023-05-10T15:51:12.953Z,1.40
2023-05-10T15:53:46.649Z,1.40
2023-05-10T15:56:20.047Z,1.48
2023-05-10T15:58:47.172Z,1.20
2023-05-10T16:01:14.379Z,1.35
2023-05-10T16:03:41.501Z,1.40
2023-05-10T16:06:08.580Z,1.23
2023-05-10T16:08:35.644Z,1.40
2023-05-10T16:11:03.229Z,1.50
2023-05-10T16:13:30.359Z,1.20
2023-05-10T16:16:00.527Z,1.20
2023-05-10T16:18:27.676Z,1.45
2023-05-10T16:20:54.847Z,1.35
2023-05-10T16:23:21.841Z,1.50
2023-05-10T16:25:48.820Z,1.58
2023-05-10T16:28:15.807Z,1.45
2023-05-10T16:30:42.754Z,1.50
2023-05-10T16:33:09.737Z,1.77
2023-05-10T16:35:36.725Z,1.63
2023-05-10T16:38:04.187Z,1.88
2023-05-10T16:40:31.567Z,1.75
2023-05-10T16:42:58.762Z,2.00
2023-05-10T16:45:26.898Z,2.10
2023-05-10T16:47:54.107Z,2.08
2023-05-10T16:50:21.396Z,2.50
2023-05-10T16:52:48.383Z,2.88
2023-05-10T16:55:15.616Z,2.47
2023-05-10T16:57:42.799Z,2.30
2023-05-10T17:00:12.038Z,2.60
2023-05-10T17:02:39.585Z,2.30
2023-05-10T17:05:06.871Z,2.47
2023-05-10T17:07:33.951Z,2.40
2023-05-10T17:10:00.960Z,2.50
2023-05-10T17:12:28.181Z,2.40
2023-05-10T17:14:55.187Z,2.65
2023-05-10T17:17:22.313Z,2.38
2023-05-10T17:19:49.317Z,2.28
2023-05-10T17:22:16.287Z,2.40
2023-05-10T17:24:43.524Z,2.20
2023-05-10T17:27:10.495Z,2.03
2023-05-10T17:29:37.712Z,2.13
2023-05-10T17:32:04.945Z,1.88
2023-05-10T17:34:31.956Z,1.98
2023-05-10T17:36:58.953Z,2.53
2023-05-10T17:39:26.024Z,1.90
2023-05-10T17:41:53.053Z,2.22
2023-05-10T17:44:20.198Z,2.00
2023-05-10T17:46:47.832Z,2.28
2023-05-10T17:49:15.427Z,2.40
2023-05-10T17:51:44.234Z,2.53
2023-05-10T17:54:11.184Z,2.30
2023-05-10T17:56:38.174Z,2.53
2023-05-10T17:59:05.592Z,2.35
2023-05-10T18:01:32.974Z,2.63
2023-05-10T18:04:00.005Z,2.65
2023-05-10T18:06:26.997Z,2.90
2023-05-10T18:08:54.019Z,2.50
2023-05-10T18:11:21.983Z,2.67
2023-05-10T18:13:48.978Z,2.30
2023-05-10T18:16:16.079Z,2.22
2023-05-10T18:18:43.107Z,2.20
2023-05-10T18:21:10.062Z,2.03
2023-05-10T18:23:37.330Z,1.90
2023-05-10T18:26:04.426Z,2.50
2023-05-10T18:28:31.445Z,2.05
2023-05-10T18:30:58.494Z,2.03
2023-05-10T18:33:25.679Z,2.33
2023-05-10T18:35:52.716Z,2.30
2023-05-10T18:38:20.007Z,2.05
2023-05-10T18:40:46.997Z,2.28
2023-05-10T18:43:14.093Z,2.05
2023-05-10T18:45:41.232Z,2.10
2023-05-10T18:48:08.330Z,2.30
2023-05-10T18:50:35.342Z,2.28
2023-05-10T18:53:03.294Z,2.20
2023-05-10T18:55:30.483Z,2.45
2023-05-10T18:57:57.505Z,2.70
2023-05-10T19:00:24.724Z,2.30
2023-05-10T19:02:51.947Z,2.33
2023-05-10T19:05:19.468Z,2.00
2023-05-10T19:07:47.115Z,2.40
2023-05-10T19:10:14.196Z,2.53
2023-05-10T19:12:43.943Z,2.05
2023-05-10T19:15:11.888Z,2.58
2023-05-10T19:17:41.049Z,2.60
2023-05-10T19:20:09.495Z,2.85
2023-05-10T19:22:54.344Z,2.80
2023-05-10T19:25:29.656Z,3.25
2023-05-10T19:27:59.691Z,3.05
2023-05-10T19:30:27.204Z,3.00
2023-05-10T19:32:54.492Z,2.90
2023-05-10T19:35:21.552Z,2.90
2023-05-10T19:37:49.867Z,2.60
2023-05-10T19:40:17.583Z,2.97
2023-05-10T19:42:44.606Z,4.25
2023-05-10T19:45:12.393Z,4.82
2023-05-10T19:47:39.484Z,4.65
2023-05-10T19:50:07.584Z,4.78
2023-05-10T19:52:34.667Z,4.43
2023-05-10T19:55:01.630Z,3.53
2023-05-10T19:57:29.122Z,3.10
2023-05-10T19:59:56.281Z,3.58
2023-05-10T20:02:23.409Z,3.13
2023-05-10T20:04:50.570Z,4.18
2023-05-10T20:07:17.555Z,3.38
2023-05-10T20:09:44.632Z,3.28
2023-05-10T20:12:11.624Z,3.15
2023-05-10T20:14:38.658Z,3.20
2023-05-10T20:17:05.948Z,3.13
2023-05-10T20:19:33.000Z,3.15
2023-05-10T20:22:00.040Z,2.88
2023-05-10T20:24:27.026Z,3.30
2023-05-10T20:26:53.927Z,3.10
2023-05-10T20:29:20.977Z,3.05
2023-05-10T20:31:47.942Z,3.08
2023-05-10T20:34:14.952Z,3.20
2023-05-10T20:36:42.181Z,3.20
2023-05-10T20:39:09.828Z,3.15
2023-05-10T20:41:36.797Z,3.20
2023-05-10T20:44:05.683Z,3.20
2023-05-10T20:46:33.845Z,3.80
2023-05-10T20:49:00.962Z,4.50
2023-05-10T20:51:30.168Z,3.78
2023-05-10T20:53:57.992Z,3.78
2023-05-10T20:56:25.073Z,4.07
2023-05-10T20:58:52.066Z,3.70
2023-05-10T21:01:19.149Z,3.78
2023-05-10T21:03:46.239Z,3.95
2023-05-10T21:06:13.206Z,3.80
2023-05-10T21:08:40.163Z,4.72
2023-05-10T21:11:07.173Z,4.20
2023-05-10T21:13:34.229Z,4.70
2023-05-10T21:16:01.270Z,4.07
2023-05-10T21:18:28.693Z,4.38
2023-05-10T21:20:55.840Z,4.63
2023-05-10T21:23:22.992Z,4.45
2023-05-10T21:25:49.968Z,4.68
2023-05-10T21:28:16.985Z,5.10
2023-05-10T21:30:43.974Z,5.18
2023-05-10T21:33:11.494Z,5.95
2023-05-10T21:35:42.813Z,5.22
2023-05-10T21:38:10.061Z,4.63
2023-05-10T21:40:37.078Z,5.35
2023-05-10T21:43:04.070Z,5.00
2023-05-10T21:45:33.078Z,5.35
2023-05-10T21:48:00.703Z,5.20
2023-05-10T21:50:27.746Z,5.38
2023-05-10T21:52:55.712Z,5.32
2023-05-10T21:55:22.950Z,5.70
2023-05-10T21:57:51.073Z,5.25
2023-05-10T22:00:19.435Z,5.22
2023-05-10T22:02:47.111Z,5.45
2023-05-10T22:05:14.237Z,5.07
2023-05-10T22:07:41.266Z,5.70
2023-05-10T22:10:09.772Z,5.50
2023-05-10T22:12:36.847Z,5.28
2023-05-10T22:17:34.418Z,5.07
2023-05-10T22:20:01.392Z,6.43
2023-05-10T22:22:28.642Z,5.45
2023-05-10T22:24:55.646Z,5.60
2023-05-10T22:27:22.666Z,6.35
2023-05-10T22:29:49.636Z,6.20
2023-05-10T22:32:16.718Z,6.35
2023-05-10T22:34:43.713Z,6.22
2023-05-10T22:37:13.857Z,6.30
2023-05-10T22:39:40.877Z,5.97
2023-05-10T22:42:08.230Z,5.88
2023-05-10T22:44:35.237Z,6.20
2023-05-10T22:47:02.269Z,6.82
2023-05-10T22:49:29.370Z,6.80
2023-05-10T22:51:56.316Z,6.50
2023-05-10T22:54:23.268Z,6.45
2023-05-10T22:56:50.951Z,7.00
2023-05-10T22:59:17.998Z,7.18
2023-05-10T23:01:45.047Z,7.68
2023-05-10T23:04:12.623Z,7.30
2023-05-10T23:06:39.791Z,7.13
2023-05-10T23:09:06.783Z,6.72
2023-05-10T23:11:33.793Z,6.15
2023-05-10T23:14:00.827Z,6.70
2023-05-10T23:16:27.828Z,7.13
2023-05-10T23:18:55.103Z,7.80
2023-05-10T23:21:22.177Z,7.43
2023-05-10T23:23:49.545Z,7.80
2023-05-10T23:26:16.512Z,7.57
2023-05-10T23:28:43.449Z,8.25
2023-05-10T23:31:10.433Z,8.57
2023-05-10T23:33:37.432Z,7.78
2023-05-10T23:36:04.608Z,7.90
2023-05-10T23:38:31.612Z,7.35
2023-05-10T23:40:58.604Z,8.18
2023-05-10T23:43:25.693Z,8.80
2023-05-10T23:45:57.158Z,7.63
2023-05-10T23:48:24.726Z,8.90
2023-05-10T23:50:51.920Z,8.90
2023-05-10T23:53:19.220Z,9.30
2023-05-10T23:55:46.285Z,8.88
2023-05-10T23:58:13.285Z,9.38
